Time;durP1;ratioP1;P1;durP2;ratioP2;P2;SDS_P1;SDS_P2;PMS_P1;PMS_P2;Temp;Humidity;BMP_temperature;BMP_pressure;BME280_temperature;BME280_humidity;BME280_pressure;Samples;Min_cycle;Max_cycle;Signal;HPM_P1;HPM_P2
2023/07/11 00:01:43;;;;;;;6.07;3.08;;;20.20;80.90;;;21.29;57.35;100733.53;4940123;29;20505;-83
2023/07/11 00:04:12;;;;;;;6.38;2.78;;;20.10;80.80;;;21.30;57.65;100735.16;4938208;29;20055;-83
2023/07/11 00:06:39;;;;;;;6.20;2.60;;;20.10;81.00;;;21.26;57.76;100717.81;4941165;29;20095;-83
2023/07/11 00:09:07;;;;;;;6.82;2.95;;;20.10;81.10;;;21.24;57.99;100720.81;4940458;29;20390;-83
2023/07/11 00:11:34;;;;;;;7.70;2.75;;;20.10;81.20;;;21.23;57.62;100712.94;4934277;29;20134;-83
2023/07/11 00:14:01;;;;;;;9.05;2.65;;;20.10;81.30;;;21.23;57.96;100719.19;4939124;29;20134;-83
2023/07/11 00:16:29;;;;;;;8.32;2.75;;;20.10;81.30;;;21.23;57.71;100715.66;4937380;29;20448;-83
2023/07/11 00:18:56;;;;;;;4.88;2.67;;;20.10;81.20;;;21.21;57.83;100715.91;4948696;28;20145;-83
2023/07/11 00:21:25;;;;;;;7.60;2.67;;;20.10;81.30;;;21.19;57.84;100718.09;4939320;29;20052;-83
2023/07/11 00:23:52;;;;;;;7.20;2.90;;;20.00;81.40;;;21.16;57.78;100713.22;4920445;29;20048;-83
2023/07/11 00:26:19;;;;;;;8.45;2.60;;;20.00;81.30;;;21.15;57.95;100702.66;4935171;29;20043;-83
2023/07/11 00:28:46;;;;;;;8.10;2.80;;;20.00;81.30;;;21.14;57.97;100703.75;4940386;29;20071;-83
2023/07/11 00:31:14;;;;;;;6.38;2.20;;;20.00;81.40;;;21.12;57.90;100703.19;4939876;29;20047;-83
2023/07/11 00:33:41;;;;;;;6.32;2.83;;;20.00;81.40;;;21.12;57.82;100705.91;4939284;29;20111;-83
2023/07/11 00:36:09;;;;;;;6.00;2.55;;;20.00;81.40;;;21.08;58.04;100695.63;4939414;29;20047;-83
2023/07/11 00:38:38;;;;;;;6.10;2.38;;;19.90;81.60;;;21.04;57.84;100694.56;4946043;28;20138;-83
2023/07/11 00:41:08;;;;;;;5.82;2.50;;;19.90;81.70;;;21.04;57.91;100694.56;4944864;29;20115;-83
2023/07/11 00:43:36;;;;;;;6.78;2.47;;;19.90;81.80;;;21.02;57.73;100696.72;4934829;29;20040;-83
2023/07/11 00:46:12;;;;;;;6.18;2.97;;;19.90;81.80;;;21.01;58.10;100688.84;4939192;29;20156;-83
2023/07/11 00:48:44;;;;;;;8.35;2.70;;;19.90;81.90;;;20.99;58.22;100688.31;4934960;29;20081;-83
2023/07/11 00:51:15;;;;;;;8.55;2.95;;;19.90;82.00;;;20.98;58.30;100682.06;4938739;29;20043;-83
2023/07/11 00:53:44;;;;;;;5.80;2.58;;;19.80;82.00;;;20.96;58.04;100678.84;4940150;29;20044;-83
2023/07/11 00:56:19;;;;;;;5.93;2.70;;;19.80;82.00;;;20.95;58.48;100673.69;4938187;29;20102;-83
2023/07/11 00:58:47;;;;;;;6.93;2.47;;;19.80;82.10;;;20.94;58.32;100672.06;4932072;29;20052;-83
2023/07/11 01:01:16;;;;;;;8.02;2.58;;;19.80;82.00;;;20.92;58.38;100672.31;4937603;29;20040;-83
2023/07/11 01:03:44;;;;;;;6.03;2.70;;;19.80;82.10;;;20.90;58.08;100666.38;4942093;29;20085;-83
2023/07/11 01:06:16;;;;;;;8.30;3.45;;;19.80;82.00;;;20.87;58.29;100666.91;4954418;28;20062;-83
2023/07/11 01:08:46;;;;;;;5.03;2.58;;;19.70;82.30;;;20.86;58.38;100653.66;4946490;29;20048;-83
2023/07/11 01:11:14;;;;;;;6.53;2.70;;;19.70;82.30;;;20.83;58.26;100663.13;4937482;29;20579;-83
2023/07/11 01:13:41;;;;;;;6.30;2.60;;;19.70;82.30;;;20.82;58.29;100661.50;4937746;29;20310;-83
2023/07/11 01:16:09;;;;;;;9.98;2.40;;;19.70;82.50;;;20.79;58.55;100659.38;4939927;29;20128;-83
2023/07/11 01:18:38;;;;;;;7.15;2.40;;;19.60;82.40;;;20.75;58.59;100659.09;4933184;29;20079;-83
2023/07/11 01:21:06;;;;;;;4.60;2.40;;;19.60;82.50;;;20.74;58.44;100662.06;4938337;29;20052;-83
2023/07/11 01:23:35;;;;;;;5.57;2.13;;;19.60;82.20;;;20.71;57.99;100657.22;4938512;29;20047;-83
2023/07/11 01:26:05;;;;;;;6.10;2.58;;;19.60;82.20;;;20.70;57.83;100658.28;4938244;29;20075;-83
2023/07/11 01:28:32;;;;;;;4.65;2.40;;;19.50;82.10;;;20.68;57.96;100658.53;4938341;29;20056;-83
2023/07/11 01:30:59;;;;;;;7.65;2.55;;;19.50;82.10;;;20.68;57.90;100655.03;4938796;29;20051;-83
2023/07/11 01:33:27;;;;;;;8.68;2.60;;;19.50;82.00;;;20.66;58.05;100658.03;4935246;29;20480;-83
2023/07/11 01:35:55;;;;;;;6.43;2.20;;;19.50;82.00;;;20.65;58.04;100656.41;4935133;29;20512;-83
2023/07/11 01:38:25;;;;;;;7.80;2.80;;;19.50;82.00;;;20.62;58.15;100650.72;4939753;29;20082;-83
2023/07/11 01:40:54;;;;;;;5.50;2.40;;;19.50;82.00;;;20.61;58.15;100654.50;4954981;29;20078;-83
2023/07/11 01:43:22;;;;;;;14.43;2.45;;;19.50;82.00;;;20.61;57.81;100649.09;4938332;29;20063;-83
2023/07/11 01:45:50;;;;;;;4.35;2.15;;;19.50;81.90;;;20.58;58.17;100651.25;4938783;29;20156;-83
2023/07/11 01:48:17;;;;;;;7.15;2.35;;;19.50;82.20;;;20.57;57.86;100646.91;4925003;29;20158;-83
2023/07/11 01:50:44;;;;;;;7.05;2.45;;;19.50;81.90;;;20.57;57.80;100640.69;4937608;29;20050;-83
2023/07/11 01:53:11;;;;;;;4.65;2.15;;;19.40;81.80;;;20.55;58.20;100643.69;4937867;29;20071;-83
2023/07/11 01:55:39;;;;;;;8.07;2.58;;;19.40;81.90;;;20.52;58.00;100641.50;4937886;29;20078;-83
2023/07/11 01:58:07;;;;;;;5.10;2.35;;;19.40;82.10;;;20.52;58.24;100641.50;4930655;29;20067;-83
2023/07/11 02:00:35;;;;;;;6.65;2.58;;;19.40;82.00;;;20.50;57.95;100635.56;4954199;28;20047;-83
2023/07/11 02:03:02;;;;;;;7.22;2.50;;;19.40;82.10;;;20.49;58.22;100638.53;4941368;29;20047;-83
2023/07/11 02:05:29;;;;;;;5.70;2.25;;;19.30;82.10;;;20.49;58.26;100627.69;4941609;29;20125;-83
2023/07/11 02:07:56;;;;;;;5.80;2.50;;;19.40;82.10;;;20.48;58.49;100631.47;4936917;29;20075;-83
2023/07/11 02:10:24;;;;;;;4.72;2.10;;;19.30;82.20;;;20.47;58.29;100630.69;4935233;29;20087;-83
2023/07/11 02:12:51;;;;;;;6.05;2.30;;;19.40;82.00;;;20.45;58.09;100624.69;4941551;29;20043;-83
2023/07/11 02:15:20;;;;;;;6.03;2.60;;;19.40;82.10;;;20.45;58.10;100624.69;4963869;23;20055;-82
2023/07/11 02:17:47;;;;;;;10.35;2.67;;;19.40;82.20;;;20.44;58.21;100617.63;4950064;29;20143;-82
2023/07/11 02:20:16;;;;;;;5.65;2.30;;;19.40;82.30;;;20.45;58.33;100621.19;4944585;28;20138;-82
2023/07/11 02:22:44;;;;;;;6.32;2.22;;;19.40;82.20;;;20.45;58.40;100621.19;4952545;28;20099;-83
2023/07/11 02:25:11;;;;;;;5.45;2.30;;;19.40;82.20;;;20.45;58.26;100615.75;4947041;29;20538;-83
2023/07/11 02:27:39;;;;;;;6.28;2.40;;;19.40;82.00;;;20.46;58.22;100620.09;4961244;28;20122;-82
2023/07/11 02:30:08;;;;;;;5.78;2.40;;;19.40;82.00;;;20.47;58.51;100610.91;4958523;28;20480;-82
2023/07/11 02:32:39;;;;;;;6.60;2.63;;;19.50;82.20;;;20.47;58.34;100613.59;4955770;28;20046;-82
2023/07/11 02:35:08;;;;;;;5.68;2.50;;;19.50;81.90;;;20.47;58.11;100608.19;4948152;29;20103;-82
2023/07/11 02:37:35;;;;;;;5.30;2.80;;;19.50;81.90;;;20.48;58.41;100610.63;4949051;28;20470;-82
2023/07/11 02:40:02;;;;;;;7.53;2.55;;;19.50;81.90;;;20.46;58.35;100603.84;4953391;28;20146;-82
2023/07/11 02:42:30;;;;;;;5.28;2.28;;;19.50;82.00;;;20.45;58.49;100594.91;4940345;29;20039;-82
2023/07/11 02:44:57;;;;;;;5.68;2.35;;;19.50;82.10;;;20.44;58.34;100600.56;4955586;28;20126;-83
2023/07/11 02:47:24;;;;;;;8.48;2.60;;;19.40;82.00;;;20.42;58.45;100592.72;4951003;28;20129;-83
2023/07/11 02:49:53;;;;;;;5.50;2.45;;;19.40;82.30;;;20.41;58.64;100590.28;4967333;28;20047;-83
2023/07/11 02:52:20;;;;;;;4.88;2.00;;;19.40;82.50;;;20.42;58.63;100600.03;4955612;28;20110;-83
2023/07/11 02:54:47;;;;;;;6.13;2.20;;;19.40;82.40;;;20.39;58.74;100595.97;4955323;28;20067;-82
2023/07/11 02:57:14;;;;;;;6.50;2.40;;;19.40;82.50;;;20.39;58.69;100598.69;4950273;28;20094;-82
2023/07/11 02:59:41;;;;;;;7.55;2.50;;;19.40;82.00;;;20.38;58.33;100594.34;4955164;28;20047;-82
2023/07/11 03:02:09;;;;;;;6.55;2.40;;;19.40;82.00;;;20.39;58.68;100589.75;4955216;28;20162;-82
2023/07/11 03:04:36;;;;;;;4.20;2.00;;;19.40;82.10;;;20.39;58.21;100587.84;4955124;28;20605;-82
2023/07/11 03:07:05;;;;;;;5.68;2.42;;;19.40;81.40;;;20.39;58.00;100582.41;4953553;28;20514;-82
2023/07/11 03:09:34;;;;;;;5.53;2.35;;;19.40;81.20;;;20.39;58.28;100579.72;4955042;28;20047;-82
2023/07/11 03:12:02;;;;;;;6.03;2.30;;;19.50;81.60;;;20.41;58.30;100576.75;4951496;28;20051;-82
2023/07/11 03:14:29;;;;;;;6.70;2.28;;;19.50;81.40;;;20.40;57.87;100569.69;4950591;28;20054;-82
2023/07/11 03:16:56;;;;;;;5.30;2.47;;;19.50;81.40;;;20.39;58.15;100565.34;4951683;28;20047;-82
2023/07/11 03:19:24;;;;;;;6.95;2.80;;;19.50;81.20;;;20.40;57.93;100567.81;4935790;29;20054;-82
2023/07/11 03:21:51;;;;;;;6.60;2.38;;;19.50;81.10;;;20.40;57.80;100554.28;4936327;29;20457;-82
2023/07/11 03:24:20;;;;;;;6.57;2.50;;;19.40;81.10;;;20.41;58.10;100569.44;4947733;28;20048;-82
2023/07/11 03:26:48;;;;;;;5.25;2.20;;;19.50;81.30;;;20.39;58.10;100563.47;4963242;28;20085;-82
2023/07/11 03:29:15;;;;;;;6.65;2.53;;;19.50;81.40;;;20.40;57.86;100570.53;4944633;28;20122;-82
2023/07/11 03:31:43;;;;;;;6.82;2.50;;;19.50;81.00;;;20.40;57.75;100564.25;4943715;29;20050;-82
2023/07/11 03:34:10;;;;;;;5.97;2.47;;;19.50;81.00;;;20.41;57.70;100571.31;4956075;28;20049;-82
2023/07/11 03:36:37;;;;;;;7.20;2.33;;;19.50;81.00;;;20.41;57.73;100561.31;4959724;28;20039;-82
2023/07/11 03:39:05;;;;;;;6.57;2.53;;;19.60;80.80;;;20.41;57.52;100560.50;4944739;28;20408;-82
2023/07/11 03:41:33;;;;;;;6.72;2.47;;;19.50;80.80;;;20.41;57.88;100564.00;4942906;28;20123;-82
2023/07/11 03:44:01;;;;;;;5.60;2.58;;;19.50;80.80;;;20.42;57.65;100562.09;4955467;28;20126;-82
2023/07/11 03:46:28;;;;;;;6.30;2.63;;;19.50;80.80;;;20.43;58.01;100559.13;4968219;28;20043;-83
2023/07/11 03:48:59;;;;;;;4.72;2.22;;;19.60;80.80;;;20.42;57.95;100557.50;4951514;28;20134;-83
2023/07/11 03:51:26;;;;;;;;;;;19.60;80.40;;;20.45;57.98;100553.44;4939974;29;20041;-82
2023/07/11 03:53:54;;;;;;;6.85;2.13;;;19.60;80.80;;;20.44;57.02;100551.78;4959181;28;19932;-82
2023/07/11 03:56:21;;;;;;;7.10;2.70;;;19.70;79.90;;;20.47;57.96;100551.28;4968388;28;20047;-82
2023/07/11 03:58:50;;;;;;;6.25;2.28;;;19.70;80.50;;;20.51;57.79;100547.75;4953139;28;20441;-82
2023/07/11 04:01:18;;;;;;;5.65;2.25;;;19.80;80.40;;;20.53;57.80;100542.06;4945744;28;20122;-82
2023/07/11 04:03:45;;;;;;;5.88;2.20;;;19.80;80.20;;;20.52;57.42;100543.97;4959960;28;20042;-82
2023/07/11 04:06:12;;;;;;;6.00;2.50;;;19.80;80.00;;;20.53;57.12;100537.44;4953113;28;20050;-82
2023/07/11 04:08:40;;;;;;;6.88;2.70;;;19.90;79.40;;;20.56;57.07;100533.38;4953720;28;20286;-82
2023/07/11 04:11:07;;;;;;;6.53;2.40;;;19.90;79.30;;;20.60;57.38;100533.66;4944700;28;20047;-83
2023/07/11 04:13:34;;;;;;;4.43;2.38;;;19.90;79.40;;;20.61;56.94;100527.13;4965358;28;20114;-82
2023/07/11 04:16:03;;;;;;;5.80;2.13;;;20.00;78.80;;;20.63;55.72;100524.94;4944992;28;20043;-82
2023/07/11 04:18:30;;;;;;;7.43;2.65;;;20.00;77.40;;;20.66;56.02;100527.13;4946769;28;20126;-82
2023/07/11 04:20:57;;;;;;;10.07;2.95;;;20.00;77.40;;;20.71;54.86;100529.81;4946307;29;20504;-82
2023/07/11 04:23:24;;;;;;;6.03;2.50;;;20.10;76.00;;;20.75;56.32;100525.47;4944944;28;20050;-82
2023/07/11 04:25:54;;;;;;;6.25;2.50;;;20.20;77.60;;;20.76;54.76;100529.78;4939013;28;20571;-83
2023/07/11 04:28:21;;;;;;;6.65;2.60;;;20.20;75.90;;;20.80;56.38;100520.00;4944677;28;20031;-83
2023/07/11 04:30:48;;;;;;;5.93;2.42;;;20.30;77.80;;;20.82;56.18;100526.75;4938549;28;20047;-82
2023/07/11 04:33:17;;;;;;;8.98;2.38;;;20.30;77.80;;;20.84;56.42;100521.09;4961552;28;20047;-83
2023/07/11 04:35:45;;;;;;;5.38;2.28;;;20.30;77.50;;;20.87;56.88;100528.66;4952385;28;20138;-82
2023/07/11 04:38:12;;;;;;;5.50;2.55;;;20.30;78.10;;;20.90;56.21;100514.53;4951288;28;20031;-82
2023/07/11 04:40:40;;;;;;;6.20;2.63;;;20.40;77.60;;;21.00;57.14;100514.50;4950717;28;20039;-82
2023/07/11 04:43:07;;;;;;;8.60;2.53;;;20.40;78.20;;;21.16;56.44;100522.53;4954756;28;20053;-82
2023/07/11 04:45:35;;;;;;;8.43;2.70;;;20.60;77.90;;;21.30;56.79;100518.09;4952739;28;20055;-83
2023/07/11 04:48:02;;;;;;;7.05;2.53;;;20.80;77.20;;;21.46;57.31;100524.25;4943764;28;20043;-83
2023/07/11 04:50:31;;;;;;;6.07;2.28;;;21.00;78.10;;;21.59;55.39;100524.44;4950897;28;20050;-82
2023/07/11 04:52:58;;;;;;;7.50;2.55;;;21.10;75.90;;;21.74;55.66;100518.09;4955004;28;20048;-82
2023/07/11 04:55:25;;;;;;;5.47;2.60;;;21.30;76.60;;;21.90;54.89;100515.22;4942925;29;20493;-82
2023/07/11 04:57:52;;;;;;;7.30;2.72;;;21.50;75.10;;;22.04;53.02;100508.03;4949654;29;20043;-82
2023/07/11 05:00:20;;;;;;;5.68;2.60;;;21.70;72.10;;;22.18;54.22;100509.00;4953352;28;20058;-82
2023/07/11 05:02:47;;;;;;;5.85;2.38;;;21.80;73.70;;;22.31;52.40;100502.91;4970030;28;20053;-82
2023/07/11 05:05:15;;;;;;;8.10;2.58;;;22.00;71.30;;;22.45;53.68;100500.31;4947936;28;20760;-82
2023/07/11 05:07:43;;;;;;;7.60;2.60;;;22.20;72.90;;;22.57;53.42;100503.41;4944084;29;20106;-82
2023/07/11 05:10:10;;;;;;;5.00;2.33;;;22.30;72.20;;;22.70;52.41;100501.91;4950120;28;20948;-82
2023/07/11 05:12:38;;;;;;;5.18;2.38;;;22.50;71.20;;;22.76;52.57;100500.72;4951650;28;20057;-82
2023/07/11 05:15:08;;;;;;;6.18;2.45;;;22.60;70.80;;;22.88;52.08;100492.13;4942822;29;20054;-83
2023/07/11 05:17:35;;;;;;;4.70;2.40;;;22.80;70.30;;;23.01;51.19;100487.91;4952438;29;20051;-82
2023/07/11 05:20:03;;;;;;;6.80;2.53;;;22.90;68.40;;;23.10;51.54;100484.25;4952682;28;20050;-82
2023/07/11 05:22:30;;;;;;;7.40;2.50;;;23.00;68.80;;;23.22;51.53;100478.34;4952606;28;20079;-82
2023/07/11 05:24:58;;;;;;;5.78;2.28;;;23.20;68.80;;;23.34;51.13;100475.19;4954324;28;20049;-83
2023/07/11 05:27:27;;;;;;;5.75;2.53;;;23.30;68.70;;;23.42;51.47;100471.78;4945761;29;20067;-82
2023/07/11 05:29:54;;;;;;;6.25;2.60;;;23.40;68.70;;;23.51;50.70;100474.63;4951493;28;20053;-82
2023/07/11 05:32:21;;;;;;;6.40;2.58;;;23.50;67.80;;;23.61;51.70;100472.53;4947735;28;20058;-82
2023/07/11 05:34:48;;;;;;;5.75;2.50;;;23.70;68.50;;;23.73;51.43;100471.31;4948389;28;20048;-83
2023/07/11 05:37:16;;;;;;;4.55;2.45;;;23.80;68.20;;;23.79;51.31;100468.19;4956480;28;20494;-83
2023/07/11 05:39:43;;;;;;;7.05;2.40;;;23.90;68.10;;;23.87;50.74;100463.97;4955977;28;20118;-83
2023/07/11 05:42:12;;;;;;;5.60;2.50;;;24.00;67.20;;;23.94;50.87;100455.41;4955576;28;20548;-83
2023/07/11 05:44:39;;;;;;;4.93;2.20;;;24.10;66.80;;;23.99;50.08;100466.22;4956579;28;20067;-83
2023/07/11 05:47:07;;;;;;;5.07;2.20;;;24.10;66.50;;;24.06;50.46;100455.72;4956321;28;20552;-82
2023/07/11 05:49:34;;;;;;;6.82;2.47;;;24.20;66.50;;;24.17;50.21;100454.41;4954665;28;20049;-82
2023/07/11 05:52:01;;;;;;;6.63;2.85;;;24.40;66.30;;;24.27;50.68;100448.75;4956219;28;20078;-82
2023/07/11 05:54:28;;;;;;;6.35;2.60;;;24.50;66.60;;;24.34;50.70;100451.88;4956631;28;20043;-82
2023/07/11 05:56:56;;;;;;;5.88;2.58;;;24.60;66.70;;;24.43;51.29;100451.22;4956501;28;20078;-82
2023/07/11 05:59:24;;;;;;;5.65;2.13;;;24.70;67.70;;;24.51;50.63;100450.50;4955649;28;20130;-82
2023/07/11 06:01:52;;;;;;;6.38;2.65;;;24.70;66.40;;;24.53;50.64;100443.63;4950984;28;20051;-83
2023/07/11 06:04:19;;;;;;;5.35;2.38;;;24.80;66.40;;;24.59;49.52;100447.84;4956898;28;20042;-83
2023/07/11 06:06:46;;;;;;;5.20;2.35;;;24.80;65.20;;;24.65;50.50;100443.09;4947154;28;20073;-83
2023/07/11 06:09:16;;;;;;;6.80;2.30;;;24.90;66.10;;;24.66;50.15;100440.06;4952739;28;20074;-81
2023/07/11 06:11:46;;;;;;;5.88;2.78;;;24.90;66.00;;;24.77;49.46;100431.66;4957611;28;20074;-81
2023/07/11 06:14:14;;;;;;;5.68;2.33;;;25.00;65.00;;;24.82;49.67;100423.34;4965845;28;20044;-80
2023/07/11 06:16:44;;;;;;;5.03;2.15;;;25.10;64.90;;;24.84;49.64;100429.28;4951828;28;20090;-80
2023/07/11 06:19:11;;;;;;;8.10;2.60;;;25.10;64.70;;;24.93;49.25;100427.47;4953496;28;20066;-81
2023/07/11 06:21:39;;;;;;;7.43;2.47;;;25.30;64.20;;;24.99;50.13;100425.44;4950249;28;20066;-81
2023/07/11 06:24:07;;;;;;;5.05;2.50;;;25.30;64.80;;;25.03;48.91;100421.75;4951329;28;20054;-81
2023/07/11 06:26:34;;;;;;;9.15;2.55;;;25.40;63.90;;;25.06;48.14;100420.34;4937033;29;20046;-80
2023/07/11 06:29:01;;;;;;;8.85;2.58;;;25.40;62.80;;;25.12;48.95;100416.41;4936754;29;20047;-81
2023/07/11 06:31:28;;;;;;;5.90;2.28;;;25.50;63.40;;;25.23;49.02;100414.22;4955034;28;20075;-81
2023/07/11 06:33:57;;;;;;;7.50;2.78;;;25.60;63.40;;;25.34;49.95;100419.16;4963481;28;20043;-81
2023/07/11 06:36:24;;;;;;;4.90;2.42;;;25.70;64.20;;;25.39;49.17;100415.47;4955711;28;20035;-80
2023/07/11 06:38:51;;;;;;;9.23;2.83;;;25.80;63.00;;;25.40;46.31;100411.63;4945006;28;20051;-81
2023/07/11 06:41:19;;;;;;;8.38;2.78;;;25.80;59.80;;;25.41;47.55;100418.69;4956385;28;20039;-81
2023/07/11 06:43:46;;;;;;;6.35;2.78;;;25.80;61.40;;;25.50;47.01;100410.56;4961256;28;20043;-81
2023/07/11 06:46:13;;;;;;;5.95;3.03;;;25.90;60.60;;;25.52;48.22;100425.50;4955702;28;20053;-81
2023/07/11 06:48:41;;;;;;;8.20;2.60;;;26.00;62.10;;;25.56;48.37;100414.75;4955300;28;20055;-80
2023/07/11 06:51:10;;;;;;;6.03;2.58;;;26.00;62.80;;;25.65;47.32;100401.97;4955737;28;20412;-81
2023/07/11 06:53:37;;;;;;;7.05;2.58;;;26.10;61.20;;;25.73;47.84;100403.13;4961664;28;20119;-81
2023/07/11 06:56:05;;;;;;;7.32;2.75;;;26.10;61.60;;;25.77;48.96;100406.84;4946623;28;20671;-81
2023/07/11 06:58:33;;;;;;;5.10;2.50;;;26.20;62.80;;;25.79;47.36;100404.63;4943484;28;20053;-81
2023/07/11 07:01:02;;;;;;;5.38;2.58;;;26.20;60.80;;;25.84;46.28;100399.84;4956347;28;20054;-80
2023/07/11 07:03:31;;;;;;;6.25;2.22;;;26.30;60.20;;;25.84;48.35;100396.28;4948913;28;20043;-81
2023/07/11 07:06:02;;;;;;;5.57;2.63;;;26.30;62.10;;;25.87;48.33;100396.47;4951511;28;20047;-81
2023/07/11 07:08:30;;;;;;;7.13;2.50;;;26.30;62.10;;;25.90;48.01;100400.50;4949733;28;20047;-81
2023/07/11 07:10:58;;;;;;;5.68;2.40;;;26.30;62.00;;;25.92;47.73;100396.34;4947314;28;20052;-81
2023/07/11 07:13:26;;;;;;;7.10;2.75;;;26.30;61.40;;;25.96;47.67;100395.69;4945421;29;20047;-81
2023/07/11 07:15:56;;;;;;;5.43;2.53;;;26.40;61.30;;;25.97;48.26;100398.13;4939984;29;20130;-81
2023/07/11 07:18:24;;;;;;;5.05;2.38;;;26.40;61.70;;;25.99;47.20;100395.88;4954712;28;20054;-81
2023/07/11 07:20:53;;;;;;;6.65;2.70;;;26.40;60.90;;;26.04;48.14;100393.00;4955372;28;20051;-81
2023/07/11 07:23:21;;;;;;;7.68;2.92;;;26.50;61.70;;;26.07;47.77;100397.03;4954828;28;20122;-81
2023/07/11 07:25:54;;;;;;;4.75;2.50;;;26.50;61.00;;;26.14;47.24;100391.91;4943990;28;20066;-80
2023/07/11 07:28:21;;;;;;;5.43;2.67;;;26.60;60.70;;;26.17;48.02;100392.06;4951708;28;20070;-81
2023/07/11 07:30:52;;;;;;;4.82;2.80;;;26.60;60.90;;;26.20;48.95;100385.94;4945574;28;20109;-81
2023/07/11 07:33:20;;;;;;;5.13;2.80;;;26.60;62.20;;;26.21;48.06;100384.03;4953555;29;20536;-81
2023/07/11 07:35:47;;;;;;;8.30;2.58;;;26.60;61.40;;;26.20;47.13;100385.94;4946888;28;20043;-82
2023/07/11 07:38:14;;;;;;;6.18;2.70;;;26.60;60.20;;;26.26;45.89;100377.63;4948896;28;20114;-80
2023/07/11 07:40:42;;;;;;;5.50;2.65;;;26.60;58.60;;;26.28;47.69;100386.31;4953473;28;20043;-80
2023/07/11 07:43:10;;;;;;;5.90;2.75;;;26.70;60.30;;;26.26;45.59;100383.91;4951732;29;20535;-80
2023/07/11 07:45:38;;;;;;;7.90;2.95;;;26.70;58.60;;;26.29;45.51;100374.22;4953452;28;20074;-79
2023/07/11 07:48:06;;;;;;;9.60;2.83;;;26.70;58.30;;;26.36;46.50;100378.13;4961993;28;20140;-80
2023/07/11 07:50:33;;;;;;;6.90;2.70;;;26.80;59.70;;;26.42;45.99;100370.56;4958265;28;20082;-79
2023/07/11 07:53:00;;;;;;;7.03;2.50;;;26.80;59.10;;;26.43;45.73;100367.53;4950862;28;20043;-80
2023/07/11 07:55:27;;;;;;;7.55;2.90;;;26.80;58.30;;;26.44;46.27;100371.88;4951659;28;20047;-80
2023/07/11 07:57:55;;;;;;;8.30;2.72;;;26.90;58.70;;;26.42;45.03;100373.31;4968499;28;20066;-80
2023/07/11 08:00:23;;;;;;;6.95;2.60;;;26.80;57.40;;;26.49;45.52;100365.44;4944842;28;20078;-79
2023/07/11 08:02:50;;;;;;;7.63;2.40;;;26.90;57.80;;;26.56;46.79;100376.72;4953322;28;20059;-79
2023/07/11 08:05:18;;;;;;;8.88;3.28;;;27.00;59.80;;;26.59;44.68;100365.13;4942991;28;20040;-80
2023/07/11 08:07:45;;;;;;;7.00;2.65;;;27.00;57.30;;;26.59;44.26;100359.66;4947350;28;20058;-79
2023/07/11 08:10:12;;;;;;;6.70;2.58;;;27.00;57.20;;;26.65;45.95;100365.78;4950854;28;20043;-80
2023/07/11 08:12:40;;;;;;;6.82;2.50;;;27.00;59.00;;;26.67;46.14;100356.13;4947086;28;20126;-80
2023/07/11 08:15:09;;;;;;;6.93;2.40;;;27.10;58.60;;;26.64;43.94;100351.28;4943215;29;20046;-79
2023/07/11 08:17:38;;;;;;;5.53;2.40;;;27.00;56.60;;;26.66;46.40;100357.25;4953359;28;20059;-80
2023/07/11 08:20:08;;;;;;;7.70;2.47;;;27.00;59.10;;;26.72;45.41;100351.63;4953262;28;20134;-80
2023/07/11 08:22:36;;;;;;;6.55;2.63;;;27.10;57.80;;;26.80;44.74;100348.88;4953901;28;20047;-79
2023/07/11 08:25:04;;;;;;;9.18;2.70;;;27.20;57.10;;;26.77;46.91;100351.47;4953168;28;20435;-79
2023/07/11 08:27:31;;;;;;;8.13;2.67;;;27.10;59.10;;;26.77;46.93;100346.78;4952008;28;20039;-80
2023/07/11 08:29:58;;;;;;;8.15;2.80;;;27.10;59.50;;;26.75;47.42;100346.31;4952180;28;20122;-80
2023/07/11 08:32:25;;;;;;;6.53;2.72;;;27.00;60.00;;;26.61;45.38;100343.75;4942294;28;20035;-80
2023/07/11 08:34:54;;;;;;;9.70;2.53;;;27.00;58.10;;;26.59;45.93;100342.44;4946363;29;20051;-80
2023/07/11 08:37:21;;;;;;;5.85;2.60;;;26.90;58.30;;;26.68;46.73;100341.31;4952588;28;20043;-80
2023/07/11 08:39:49;;;;;;;9.02;2.67;;;27.00;59.50;;;26.69;45.95;100345.69;4952601;28;20050;-80
2023/07/11 08:42:28;;;;;;;7.53;3.08;;;27.00;58.50;;;26.64;46.43;100336.81;4952861;28;20121;-80
2023/07/11 08:45:20;;;;;;;9.23;2.70;;;27.00;59.70;;;26.64;46.78;100332.13;4951199;28;20114;-80
2023/07/11 08:47:58;;;;;;;7.50;2.72;;;27.00;59.40;;;26.74;46.31;100338.41;4948081;28;20460;-80
2023/07/11 08:50:30;;;;;;;9.60;2.67;;;27.00;59.10;;;26.94;46.42;100332.28;4943064;28;20122;-80
2023/07/11 08:53:09;;;;;;;10.65;2.75;;;27.30;59.20;;;27.12;45.15;100319.38;4945474;29;20126;-80
2023/07/11 08:55:42;;;;;;;10.30;2.90;;;27.50;57.90;;;27.23;45.50;100328.84;4971018;28;20572;-80
2023/07/11 08:58:16;;;;;;;6.55;2.70;;;27.70;57.60;;;27.28;44.06;100320.50;4953161;28;20126;-80
2023/07/11 09:00:47;;;;;;;6.05;2.45;;;27.70;55.70;;;27.33;45.41;100324.97;4962925;23;20075;-83
2023/07/11 09:03:26;;;;;;;7.43;2.70;;;27.80;57.40;;;27.41;44.84;100319.47;4938635;28;20044;-83
2023/07/11 09:06:01;;;;;;;5.88;2.80;;;27.90;56.70;;;27.48;45.71;100310.75;4955706;28;20676;-83
2023/07/11 09:08:29;;;;;;;6.57;2.58;;;28.00;58.20;;;27.52;44.00;100308.13;4946974;29;20139;-83
2023/07/11 09:11:12;;;;;;;5.32;2.78;;;28.00;56.40;;;27.56;45.89;100312.63;4955067;28;20098;-83
2023/07/11 09:14:07;;;;;;;5.22;2.70;;;28.00;58.20;;;27.64;46.23;100300.84;4951138;29;20587;-83
2023/07/11 09:16:37;;;;;;;8.98;2.78;;;28.10;58.30;;;27.69;46.36;100297.09;4925979;29;20166;-83
2023/07/11 09:19:25;;;;;;;8.00;3.15;;;28.20;58.50;;;27.71;44.70;100297.59;4952940;28;20747;-83
2023/07/11 09:22:05;;;;;;;8.02;2.72;;;28.20;56.40;;;27.81;47.54;100299.16;4951233;28;20123;-83
2023/07/11 09:24:45;;;;;;;8.32;2.72;;;28.30;59.70;;;27.86;43.59;100296.22;4970539;28;20123;-83
2023/07/11 09:27:23;;;;;;;9.82;3.08;;;28.40;55.50;;;27.82;42.77;100292.56;4955816;28;20039;-83
2023/07/11 09:29:51;;;;;;;6.53;2.72;;;28.30;54.80;;;27.83;43.89;100292.22;4954326;28;20090;-83
2023/07/11 09:32:20;;;;;;;7.93;2.85;;;28.30;55.70;;;27.82;43.17;100284.34;4956158;28;20441;-83
2023/07/11 09:34:50;;;;;;;10.32;2.90;;;28.30;54.90;;;27.79;41.07;100274.03;4956749;28;20043;-83
2023/07/11 09:37:36;;;;;;;7.20;2.70;;;28.20;52.60;;;27.78;42.43;100277.91;4956985;28;20126;-83
2023/07/11 09:40:13;;;;;;;9.60;2.92;;;28.20;53.80;;;27.78;42.49;100277.91;4942880;28;20052;-83
2023/07/11 09:42:47;;;;;;;7.07;2.88;;;28.20;54.20;;;27.70;41.22;100268.56;4956980;28;20043;-83
2023/07/11 09:45:17;;;;;;;7.82;2.80;;;28.10;52.50;;;27.68;42.59;100274.38;4939220;29;20051;-83
2023/07/11 09:47:52;;;;;;;10.00;3.30;;;28.10;54.40;;;27.73;42.29;100270.69;4954772;29;20122;-83
2023/07/11 09:51:05;;;;;;;9.57;2.88;;;28.10;54.00;;;27.68;41.99;100266.16;4955020;28;20134;-83
2023/07/11 09:53:34;;;;;;;7.10;3.00;;;28.10;54.50;;;27.66;42.83;100271.16;4930126;29;20097;-83
2023/07/11 09:56:04;;;;;;;7.78;3.13;;;28.00;55.50;;;27.57;42.88;100272.34;4965675;28;20112;-83
2023/07/11 09:58:34;;;;;;;9.30;3.15;;;27.90;54.70;;;27.57;42.77;100264.91;4950506;28;20070;-83
2023/07/11 10:01:04;;;;;;;6.57;2.50;;;27.90;54.20;;;27.64;43.11;100262.47;4955621;28;20137;-83
2023/07/11 10:03:35;;;;;;;7.05;2.80;;;28.00;55.60;;;27.68;44.24;100255.19;4948517;29;20122;-83
2023/07/11 10:06:05;;;;;;;7.47;3.28;;;28.00;56.40;;;27.69;45.61;100265.03;4955074;28;20043;-83
2023/07/11 10:08:44;;;;;;;5.20;2.50;;;28.00;58.00;;;27.77;45.63;100260.66;4954050;29;20045;-83
2023/07/11 10:11:14;;;;;;;11.60;2.85;;;28.10;57.60;;;27.67;42.67;100264.56;4954461;28;20051;-83
2023/07/11 10:13:42;;;;;;;9.40;2.75;;;28.00;54.70;;;27.55;43.72;100260.91;4955218;28;20109;-83
2023/07/11 10:16:18;;;;;;;6.25;2.60;;;27.80;55.50;;;27.46;43.74;100253.53;4954269;28;20058;-83
2023/07/11 10:18:45;;;;;;;6.60;2.60;;;27.80;55.40;;;27.40;43.43;100254.06;4937871;29;20055;-83
2023/07/11 10:21:16;;;;;;;7.15;2.63;;;27.60;55.70;;;27.39;45.23;100246.97;4953886;28;20149;-83